Wetterdaten: Woche 04.03.13 - 10.03.13 (KW10)
Datum Zeit Temp. A. Feuchte A. Luftdruck Regen Wind Richtung Taupunkt Windchill Windben
04.03.2013 00:00 2,3 C 71 % 1023,0 hPa 0,0 l/m 4,1 km/h N -2,4 C 2,3 C 12,5 km/h
04.03.2013 01:00 2,5 C 69 % 1023,3 hPa 0,0 l/m 4,5 km/h N -2,6 C 2,5 C 14,9 km/h
04.03.2013 02:00 2,3 C 69 % 1023,3 hPa 0,0 l/m 2,6 km/h N -2,9 C 2,3 C 8,4 km/h
04.03.2013 03:00 2,2 C 68 % 1023,5 hPa 0,0 l/m 3,2 km/h N -3,2 C 2,2 C 14,1 km/h
04.03.2013 04:00 2,0 C 67 % 1023,6 hPa 0,0 l/m 1,9 km/h N -3,5 C 2,0 C 7,6 km/h
04.03.2013 05:00 1,1 C 69 % 1024,0 hPa 0,0 l/m 0,5 km/h N -4,0 C 1,1 C 2,8 km/h
04.03.2013 06:00 -0,5 C 73 % 1024,3 hPa 0,0 l/m 0,5 km/h N -4,7 C -0,5 C 2,4 km/h
04.03.2013 07:00 -0,9 C 76 % 1025,0 hPa 0,0 l/m 0,0 km/h N -4,6 C -0,9 C 0,4 km/h
04.03.2013 08:00 2,0 C 69 % 1025,4 hPa 0,0 l/m 2,8 km/h N -3,2 C 2,0 C 10,1 km/h
04.03.2013 09:00 4,2 C 59 % 1025,5 hPa 0,0 l/m 2,5 km/h N -3,2 C 4,2 C 8,5 km/h
04.03.2013 10:00 5,5 C 54 % 1025,6 hPa 0,0 l/m 1,5 km/h N -3,0 C 5,5 C 8,4 km/h
04.03.2013 11:00 6,0 C 54 % 1025,7 hPa 0,0 l/m 2,8 km/h N -2,7 C 6,0 C 11,6 km/h
04.03.2013 12:00 6,5 C 51 % 1025,3 hPa 0,0 l/m 2,3 km/h N -2,8 C 6,5 C 10,1 km/h
04.03.2013 13:00 7,4 C 49 % 1024,7 hPa 0,0 l/m 2,4 km/h N -2,5 C 7,4 C 10,9 km/h
04.03.2013 14:00 7,6 C 47 % 1024,3 hPa 0,0 l/m 3,2 km/h N -3,0 C 7,6 C 12,5 km/h
04.03.2013 15:00 7,9 C 47 % 1023,8 hPa 0,0 l/m 2,6 km/h N -2,9 C 7,9 C 13,3 km/h
04.03.2013 16:00 7,4 C 48 % 1023,6 hPa 0,0 l/m 3,5 km/h N -2,8 C 7,4 C 14,5 km/h
04.03.2013 17:00 6,5 C 52 % 1023,9 hPa 0,0 l/m 0,8 km/h N -2,6 C 6,5 C 6,0 km/h
04.03.2013 18:00 5,0 C 53 % 1024,4 hPa 0,0 l/m 1,5 km/h N -3,7 C 5,0 C 7,2 km/h
04.03.2013 19:00 3,5 C 57 % 1024,6 hPa 0,0 l/m 0,5 km/h N -4,3 C 3,5 C 3,2 km/h
04.03.2013 20:00 2,3 C 63 % 1024,5 hPa 0,0 l/m 0,1 km/h N -4,1 C 2,3 C 2,4 km/h
04.03.2013 21:00 0,8 C 70 % 1024,6 hPa 0,0 l/m 0,2 km/h N -4,1 C 0,8 C 2,8 km/h
04.03.2013 22:00 0,9 C 72 % 1024,2 hPa 0,0 l/m 0,2 km/h N -3,7 C 0,9 C 3,2 km/h
04.03.2013 23:00 -0,6 C 75 % 1023,7 hPa 0,0 l/m 0,0 km/h N -4,4 C -0,6 C 0,8 km/h
05.03.2013 00:00 -1,5 C 80 % 1023,2 hPa 0,0 l/m 0,0 km/h N -4,6 C -1,5 C 1,6 km/h
05.03.2013 01:00 -0,2 C 83 % 1022,7 hPa 0,0 l/m 0,7 km/h N -2,8 C -0,2 C 5,6 km/h
05.03.2013 02:00 2,4 C 72 % 1022,0 hPa 0,0 l/m 6,3 km/h N -2,1 C 1,7 C 18,5 km/h
05.03.2013 03:00 2,7 C 71 % 1021,5 hPa 0,0 l/m 7,5 km/h N -2,2 C 1,5 C 20,1 km/h
05.03.2013 04:00 3,3 C 68 % 1020,9 hPa 0,0 l/m 11,8 km/h N -2,1 C -0,9 C 27,0 km/h
05.03.2013 05:00 3,3 C 67 % 1020,7 hPa 0,0 l/m 12,9 km/h N -2,2 C -1,4 C 27,4 km/h
05.03.2013 06:00 2,6 C 70 % 1020,3 hPa 0,0 l/m 6,5 km/h N -2,2 C 1,9 C 19,3 km/h
05.03.2013 07:00 3,3 C 68 % 1020,5 hPa 0,0 l/m 6,9 km/h N -2,0 C 1,9 C 22,1 km/h
05.03.2013 08:00 5,1 C 63 % 1020,5 hPa 0,0 l/m 13,5 km/h N -1,3 C 0,1 C 30,2 km/h
05.03.2013 09:00 6,7 C 59 % 1020,0 hPa 0,0 l/m 17,3 km/h N -0,9 C 0,0 C 34,6 km/h
05.03.2013 10:00 7,9 C 55 % 1019,6 hPa 0,0 l/m 18,6 km/h N -0,5 C 1,2 C 42,3 km/h
05.03.2013 11:00 8,8 C 52 % 1019,6 hPa 0,0 l/m 21,5 km/h N -0,4 C 1,3 C 43,0 km/h
05.03.2013 12:00 9,8 C 48 % 1018,9 hPa 0,0 l/m 19,1 km/h N -0,8 C 3,3 C 39,8 km/h
05.03.2013 13:00 10,5 C 46 % 1018,1 hPa 0,0 l/m 18,5 km/h N -0,7 C 4,5 C 40,2 km/h
05.03.2013 14:00 11,3 C 45 % 1017,0 hPa 0,0 l/m 16,3 km/h N -0,3 C 6,2 C 34,6 km/h
05.03.2013 15:00 11,1 C 46 % 1016,6 hPa 0,0 l/m 15,3 km/h N 0,0 C 6,4 C 35,4 km/h
05.03.2013 16:00 10,6 C 47 % 1016,0 hPa 0,0 l/m 13,8 km/h N -0,2 C 6,5 C 35,0 km/h
05.03.2013 17:00 9,3 C 50 % 1015,5 hPa 0,0 l/m 11,8 km/h N -0,5 C 5,8 C 29,8 km/h
05.03.2013 18:00 7,8 C 55 % 1015,1 hPa 0,0 l/m 11,1 km/h N -0,6 C 4,6 C 25,7 km/h
05.03.2013 19:00 6,9 C 58 % 1014,9 hPa 0,0 l/m 6,1 km/h N -0,8 C 6,4 C 18,5 km/h
05.03.2013 20:00 6,6 C 61 % 1014,4 hPa 0,0 l/m 5,4 km/h N -0,5 C 6,4 C 17,7 km/h
05.03.2013 21:00 6,5 C 60 % 1014,0 hPa 0,0 l/m 6,3 km/h N -0,6 C 5,8 C 19,3 km/h
05.03.2013 22:00 6,7 C 58 % 1013,2 hPa 0,0 l/m 5,1 km/h N -0,9 C 6,1 C 17,3 km/h
05.03.2013 23:00 6,9 C 58 % 1012,5 hPa 0,0 l/m 3,6 km/h N -0,9 C 6,9 C 18,9 km/h
06.03.2013 00:00 6,5 C 58 % 1012,0 hPa 0,0 l/m 0,9 km/h N -1,2 C 6,5 C 5,6 km/h
06.03.2013 01:00 6,6 C 56 % 1011,1 hPa 0,0 l/m 3,6 km/h N -1,5 C 6,6 C 12,5 km/h
06.03.2013 02:00 7,8 C 49 % 1010,3 hPa 0,0 l/m 7,9 km/h N -2,2 C 6,6 C 19,3 km/h
06.03.2013 03:00 7,8 C 48 % 1009,7 hPa 0,0 l/m 7,3 km/h N -2,6 C 6,9 C 18,1 km/h
06.03.2013 04:00 7,4 C 48 % 1009,5 hPa 0,0 l/m 1,7 km/h N -2,9 C 7,4 C 7,2 km/h
06.03.2013 05:00 5,2 C 52 % 1009,5 hPa 0,0 l/m 0,1 km/h N -3,8 C 5,2 C 1,2 km/h
06.03.2013 06:00 1,9 C 66 % 1009,7 hPa 0,0 l/m 0,1 km/h N -3,8 C 1,9 C 1,6 km/h
06.03.2013 07:00 1,3 C 72 % 1009,8 hPa 0,0 l/m 0,2 km/h N -3,2 C 1,3 C 3,6 km/h
06.03.2013 08:00 5,0 C 66 % 1009,4 hPa 0,0 l/m 1,8 km/h N -0,9 C 5,0 C 5,6 km/h
06.03.2013 09:00 8,6 C 54 % 1008,7 hPa 0,0 l/m 1,9 km/h N -0,3 C 8,6 C 6,0 km/h
06.03.2013 10:00 11,8 C 46 % 1007,9 hPa 0,0 l/m 1,3 km/h N 0,5 C 11,8 C 5,6 km/h
06.03.2013 11:00 15,2 C 43 % 1006,9 hPa 0,0 l/m 5,1 km/h N 2,7 C 14,6 C 14,0 km/h
06.03.2013 12:00 15,2 C 46 % 1006,2 hPa 0,0 l/m 10,1 km/h N 3,6 C 13,3 C 24,5 km/h
06.03.2013 13:00 15,1 C 48 % 1005,3 hPa 0,0 l/m 9,8 km/h N 4,0 C 13,4 C 22,9 km/h
06.03.2013 14:00 15,7 C 48 % 1004,5 hPa 0,0 l/m 9,7 km/h N 4,6 C 14,1 C 24,5 km/h
06.03.2013 15:00 16,2 C 46 % 1004,0 hPa 0,0 l/m 8,8 km/h N 4,6 C 15,0 C 22,9 km/h
06.03.2013 16:00 15,7 C 50 % 1004,0 hPa 0,0 l/m 9,5 km/h N 5,3 C 14,1 C 23,7 km/h
06.03.2013 17:00 14,2 C 57 % 1003,9 hPa 0,0 l/m 9,3 km/h N 5,7 C 12,6 C 25,7 km/h
06.03.2013 18:00 12,8 C 61 % 1004,0 hPa 0,0 l/m 8,8 km/h N 5,5 C 11,3 C 22,1 km/h
06.03.2013 19:00 11,9 C 65 % 1003,9 hPa 0,0 l/m 8,7 km/h N 5,4 C 10,4 C 20,1 km/h
06.03.2013 20:00 11,3 C 67 % 1003,6 hPa 0,0 l/m 8,6 km/h N 5,3 C 9,9 C 19,7 km/h
06.03.2013 21:00 10,8 C 68 % 1003,2 hPa 0,0 l/m 4,5 km/h N 5,1 C 10,8 C 13,7 km/h
06.03.2013 22:00 11,0 C 67 % 1002,8 hPa 0,0 l/m 5,7 km/h N 5,2 C 10,9 C 15,7 km/h
06.03.2013 23:00 11,3 C 66 % 1002,4 hPa 0,0 l/m 2,5 km/h N 5,2 C 11,3 C 9,7 km/h
07.03.2013 00:00 11,3 C 65 % 1002,0 hPa 0,0 l/m 3,1 km/h N 5,0 C 11,3 C 13,3 km/h
07.03.2013 01:00 11,9 C 63 % 1001,5 hPa 0,0 l/m 8,0 km/h N 5,0 C 10,8 C 20,5 km/h
07.03.2013 02:00 11,4 C 66 % 1001,2 hPa 0,0 l/m 8,9 km/h N 5,1 C 9,8 C 23,3 km/h
07.03.2013 03:00 10,8 C 69 % 1000,6 hPa 0,0 l/m 7,7 km/h N 5,2 C 9,9 C 18,5 km/h
07.03.2013 04:00 10,6 C 72 % 1000,5 hPa 0,0 l/m 8,4 km/h N 5,6 C 9,2 C 22,1 km/h
07.03.2013 05:00 10,4 C 73 % 1000,3 hPa 0,0 l/m 7,2 km/h N 5,6 C 9,6 C 20,1 km/h
07.03.2013 06:00 10,0 C 75 % 1000,2 hPa 0,0 l/m 6,2 km/h N 5,8 C 9,9 C 19,3 km/h
07.03.2013 07:00 9,9 C 76 % 1000,7 hPa 0,0 l/m 4,0 km/h N 5,9 C 9,9 C 12,9 km/h
07.03.2013 08:00 10,5 C 75 % 1000,8 hPa 0,0 l/m 3,8 km/h N 6,2 C 10,5 C 10,9 km/h
07.03.2013 09:00 12,2 C 69 % 1000,8 hPa 0,0 l/m 3,7 km/h N 6,8 C 12,2 C 11,7 km/h
07.03.2013 10:00 14,8 C 61 % 1000,4 hPa 0,0 l/m 1,9 km/h N 7,2 C 14,8 C 7,6 km/h
07.03.2013 11:00 15,4 C 59 % 1000,4 hPa 0,0 l/m 3,3 km/h N 7,3 C 15,4 C 11,7 km/h
07.03.2013 12:00 15,3 C 59 % 1000,2 hPa 0,0 l/m 3,2 km/h N 7,4 C 15,3 C 11,3 km/h
07.03.2013 13:00 17,2 C 56 % 999,8 hPa 0,0 l/m 1,8 km/h N 8,3 C 17,2 C 8,0 km/h
07.03.2013 14:00 17,7 C 53 % 999,5 hPa 0,0 l/m 2,0 km/h N 8,0 C 17,7 C 7,6 km/h
07.03.2013 15:00 17,9 C 51 % 999,4 hPa 0,0 l/m 2,3 km/h N 7,6 C 17,9 C 7,2 km/h
07.03.2013 16:00 18,1 C 52 % 999,2 hPa 0,0 l/m 2,9 km/h N 8,0 C 18,1 C 9,7 km/h
07.03.2013 17:00 17,3 C 55 % 999,3 hPa 0,0 l/m 1,9 km/h N 8,1 C 17,3 C 7,6 km/h
07.03.2013 18:00 15,3 C 59 % 999,7 hPa 0,0 l/m 0,1 km/h N 7,3 C 15,3 C 2,8 km/h
07.03.2013 19:00 12,7 C 66 % 1000,0 hPa 0,0 l/m 0,0 km/h N 6,4 C 12,7 C 0,8 km/h
07.03.2013 20:00 10,7 C 71 % 1000,5 hPa 0,0 l/m 0,2 km/h N 5,7 C 10,7 C 2,0 km/h
07.03.2013 21:00 8,5 C 76 % 1000,7 hPa 0,0 l/m 0,0 km/h N 4,5 C 8,5 C 0,0 km/h
07.03.2013 22:00 7,3 C 82 % 1001,0 hPa 0,0 l/m 0,1 km/h N 4,5 C 7,3 C 1,6 km/h
07.03.2013 23:00 7,3 C 84 % 1001,3 hPa 0,0 l/m 0,5 km/h N 4,7 C 7,3 C 2,8 km/h
08.03.2013 00:00 6,6 C 84 % 1001,4 hPa 0,0 l/m 0,0 km/h N 4,1 C 6,6 C 1,6 km/h
08.03.2013 01:00 6,8 C 84 % 1001,8 hPa 0,0 l/m 0,0 km/h N 4,3 C 6,8 C 0,8 km/h
08.03.2013 02:00 7,1 C 84 % 1001,6 hPa 0,0 l/m 0,1 km/h N 4,6 C 7,1 C 0,8 km/h
08.03.2013 03:00 6,7 C 84 % 1001,5 hPa 0,0 l/m 0,0 km/h N 4,2 C 6,7 C 0,8 km/h
08.03.2013 04:00 6,4 C 84 % 1001,7 hPa 0,0 l/m 0,0 km/h N 3,9 C 6,4 C 0,8 km/h
08.03.2013 05:00 6,3 C 84 % 1002,2 hPa 0,0 l/m 0,0 km/h N 3,8 C 6,3 C 0,0 km/h
08.03.2013 06:00 6,7 C 83 % 1002,5 hPa 0,0 l/m 0,1 km/h N 4,0 C 6,7 C 1,2 km/h
08.03.2013 07:00 7,3 C 83 % 1002,6 hPa 0,0 l/m 0,0 km/h N 4,6 C 7,3 C 0,0 km/h
08.03.2013 08:00 7,8 C 83 % 1002,9 hPa 0,0 l/m 0,0 km/h N 5,1 C 7,8 C 0,0 km/h
08.03.2013 09:00 8,9 C 84 % 1002,9 hPa 0,0 l/m 0,1 km/h N 6,3 C 8,9 C 1,6 km/h
08.03.2013 10:00 10,1 C 84 % 1002,6 hPa 0,0 l/m 0,8 km/h N 7,5 C 10,1 C 4,8 km/h
08.03.2013 11:00 10,4 C 82 % 1002,7 hPa 0,0 l/m 1,3 km/h N 7,5 C 10,4 C 7,2 km/h
08.03.2013 12:00 10,5 C 82 % 1002,5 hPa 0,0 l/m 1,3 km/h N 7,6 C 10,5 C 6,8 km/h
08.03.2013 13:00 10,9 C 83 % 1001,7 hPa 0,0 l/m 0,3 km/h N 8,1 C 10,9 C 4,0 km/h
08.03.2013 14:00 11,7 C 81 % 1001,2 hPa 0,0 l/m 0,4 km/h N 8,6 C 11,7 C 5,2 km/h
08.03.2013 15:00 12,6 C 78 % 1000,8 hPa 0,0 l/m 0,6 km/h N 8,9 C 12,6 C 4,8 km/h
08.03.2013 16:00 12,9 C 74 % 1000,7 hPa 0,0 l/m 1,4 km/h N 8,4 C 12,9 C 7,2 km/h
08.03.2013 17:00 13,0 C 76 % 1000,6 hPa 0,0 l/m 0,9 km/h N 8,7 C 13,0 C 6,0 km/h
08.03.2013 18:00 12,0 C 79 % 1001,1 hPa 0,0 l/m 0,5 km/h N 8,4 C 12,0 C 6,0 km/h
08.03.2013 19:00 11,3 C 81 % 1001,3 hPa 0,0 l/m 0,1 km/h N 8,1 C 11,3 C 2,8 km/h
08.03.2013 20:00 10,8 C 82 % 1001,5 hPa 0,0 l/m 0,2 km/h N 7,8 C 10,8 C 2,8 km/h
08.03.2013 21:00 10,5 C 83 % 1001,5 hPa 0,0 l/m 0,0 km/h N 7,7 C 10,5 C 1,6 km/h
08.03.2013 22:00 10,2 C 83 % 1001,5 hPa 0,0 l/m 0,0 km/h N 7,4 C 10,2 C 0,4 km/h
08.03.2013 23:00 9,9 C 84 % 1001,4 hPa 0,0 l/m 0,0 km/h N 7,3 C 9,9 C 0,4 km/h
09.03.2013 00:00 9,5 C 84 % 1001,3 hPa 0,0 l/m 0,0 km/h N 6,9 C 9,5 C 0,0 km/h
09.03.2013 01:00 9,4 C 84 % 1001,5 hPa 0,0 l/m 1,1 km/h N 6,8 C 9,4 C 5,2 km/h
09.03.2013 02:00 9,3 C 84 % 1001,6 hPa 0,0 l/m 0,5 km/h N 6,7 C 9,3 C 3,6 km/h
09.03.2013 03:00 8,8 C 84 % 1001,9 hPa 0,0 l/m 4,8 km/h N 6,3 C 8,7 C 13,3 km/h
09.03.2013 04:00 7,6 C 85 % 1002,3 hPa 0,0 l/m 7,3 km/h N 5,2 C 6,9 C 16,5 km/h
09.03.2013 05:00 7,1 C 84 % 1002,6 hPa 0,3 l/m 7,6 km/h N 4,6 C 6,2 C 17,7 km/h
09.03.2013 06:00 6,9 C 83 % 1002,8 hPa 0,0 l/m 5,3 km/h N 4,2 C 6,9 C 13,7 km/h
09.03.2013 07:00 6,9 C 83 % 1002,9 hPa 0,0 l/m 4,5 km/h N 4,2 C 6,7 C 10,9 km/h
09.03.2013 08:00 7,3 C 83 % 1003,2 hPa 0,0 l/m 2,2 km/h N 4,7 C 7,3 C 7,2 km/h
09.03.2013 09:00 8,3 C 84 % 1003,3 hPa 0,0 l/m 4,3 km/h N 5,8 C 8,3 C 10,9 km/h
09.03.2013 10:00 8,9 C 85 % 1003,4 hPa 0,0 l/m 1,8 km/h N 6,5 C 8,9 C 7,2 km/h
09.03.2013 11:00 9,7 C 83 % 1003,3 hPa 0,0 l/m 0,5 km/h N 6,9 C 9,7 C 3,6 km/h
09.03.2013 12:00 9,7 C 81 % 1003,0 hPa 0,0 l/m 0,7 km/h N 6,5 C 9,7 C 5,6 km/h
09.03.2013 13:00 10,1 C 81 % 1002,3 hPa 0,0 l/m 0,2 km/h N 7,0 C 10,1 C 2,8 km/h
09.03.2013 14:00 11,7 C 78 % 1001,8 hPa 0,0 l/m 3,7 km/h N 8,0 C 11,7 C 12,5 km/h
09.03.2013 15:00 12,8 C 73 % 1001,6 hPa 0,0 l/m 4,8 km/h N 8,0 C 12,8 C 14,5 km/h
09.03.2013 16:00 12,7 C 72 % 1001,4 hPa 0,0 l/m 4,5 km/h N 7,8 C 12,7 C 12,5 km/h
09.03.2013 17:00 12,0 C 73 % 1001,5 hPa 0,0 l/m 1,6 km/h N 7,4 C 12,0 C 6,8 km/h
09.03.2013 18:00 10,6 C 78 % 1002,2 hPa 0,0 l/m 0,2 km/h N 6,8 C 10,6 C 2,4 km/h
09.03.2013 19:00 9,5 C 81 % 1002,4 hPa 0,0 l/m 0,0 km/h N 6,3 C 9,5 C 0,8 km/h
09.03.2013 20:00 9,0 C 83 % 1002,2 hPa 0,0 l/m 0,1 km/h N 6,2 C 9,0 C 2,4 km/h
09.03.2013 21:00 9,1 C 84 % 1001,9 hPa 0,0 l/m 0,1 km/h N 6,5 C 9,1 C 1,6 km/h
09.03.2013 22:00 8,6 C 84 % 1001,8 hPa 0,3 l/m 0,0 km/h N 6,0 C 8,6 C 0,0 km/h
09.03.2013 23:00 8,1 C 84 % 1001,4 hPa 0,0 l/m 0,0 km/h N 5,6 C 8,1 C 0,0 km/h
10.03.2013 00:00 7,8 C 84 % 1001,2 hPa 0,0 l/m 0,0 km/h N 5,2 C 7,8 C 0,0 km/h
10.03.2013 01:00 6,4 C 84 % 1001,1 hPa 0,0 l/m 0,1 km/h N 3,9 C 6,4 C 1,2 km/h
10.03.2013 02:00 5,8 C 83 % 1000,7 hPa 0,0 l/m 0,2 km/h N 3,1 C 5,8 C 1,6 km/h
10.03.2013 03:00 6,1 C 82 % 1000,5 hPa 0,0 l/m 0,0 km/h N 3,2 C 6,1 C 0,4 km/h
10.03.2013 04:00 5,5 C 82 % 1000,5 hPa 0,0 l/m 0,0 km/h N 2,7 C 5,5 C 0,0 km/h
10.03.2013 05:00 5,0 C 82 % 1000,3 hPa 0,0 l/m 0,0 km/h N 2,2 C 5,0 C 0,0 km/h
10.03.2013 06:00 4,8 C 81 % 1000,1 hPa 0,0 l/m 0,0 km/h N 1,8 C 4,8 C 0,0 km/h
10.03.2013 07:00 4,8 C 81 % 1000,3 hPa 0,0 l/m 0,0 km/h N 1,8 C 4,8 C 0,0 km/h
10.03.2013 08:00 5,8 C 80 % 1000,2 hPa 0,0 l/m 0,0 km/h N 2,5 C 5,8 C 0,4 km/h
10.03.2013 09:00 6,8 C 79 % 999,9 hPa 0,0 l/m 0,3 km/h N 3,4 C 6,8 C 3,2 km/h
10.03.2013 10:00 7,5 C 80 % 999,8 hPa 0,0 l/m 0,7 km/h N 4,2 C 7,5 C 6,0 km/h
10.03.2013 11:00 8,3 C 83 % 999,6 hPa 0,0 l/m 1,3 km/h N 5,6 C 8,3 C 6,4 km/h
10.03.2013 12:00 9,2 C 85 % 999,3 hPa 0,0 l/m 1,6 km/h N 6,7 C 9,2 C 8,0 km/h
10.03.2013 13:00 11,1 C 81 % 998,7 hPa 0,0 l/m 0,8 km/h N 7,9 C 11,1 C 5,6 km/h
10.03.2013 14:00 12,5 C 73 % 998,3 hPa 0,0 l/m 0,8 km/h N 7,7 C 12,5 C 10,5 km/h
10.03.2013 15:00 12,1 C 66 % 998,3 hPa 0,0 l/m 4,8 km/h N 5,8 C 12,1 C 14,5 km/h
10.03.2013 16:00 11,6 C 67 % 998,3 hPa 0,0 l/m 2,4 km/h N 5,7 C 11,6 C 11,3 km/h
10.03.2013 17:00 11,0 C 71 % 998,3 hPa 0,0 l/m 2,3 km/h N 5,8 C 11,0 C 11,7 km/h
10.03.2013 18:00 10,1 C 74 % 998,5 hPa 0,0 l/m 0,1 km/h N 5,6 C 10,1 C 1,6 km/h
10.03.2013 19:00 8,8 C 79 % 998,7 hPa 0,0 l/m 0,0 km/h N 5,3 C 8,8 C 0,0 km/h
10.03.2013 20:00 8,0 C 82 % 998,5 hPa 0,0 l/m 0,0 km/h N 5,2 C 8,0 C 1,2 km/h
10.03.2013 21:00 6,4 C 83 % 998,5 hPa 0,0 l/m 0,0 km/h N 3,7 C 6,4 C 0,0 km/h
10.03.2013 22:00 4,7 C 84 % 998,6 hPa 0,0 l/m 0,0 km/h N 2,2 C 4,7 C 0,4 km/h
10.03.2013 23:00 4,8 C 84 % 998,5 hPa 0,0 l/m 0,4 km/h N 2,3 C 4,8 C 2,4 km/h
Min-Datum _ 05.03.13 06.03.13 10.03.13 - 04.03.13 - 04.03.13 05.03.13 04.03.13
_ Min-Zeit 00:30 11:00 14:30 - 05:15 - 07:15 05:00 05:45
Minimum _ -1,7 C 43 % 998,2 hPa - 0,0 km/h - -5,0 C -3,4 C 0,0 km/h
Max-Datum _ 07.03.13 05.03.13 04.03.13 09.03.13 05.03.13 - 08.03.13 07.03.13 05.03.13
_ Max-Zeit 16:15 01:45 10:45 05:45 11:15 - 15:15 16:15 11:15
Maximum _ 18,2 C 85 % 1025,7 hPa 0,3 l/m 22,8 km/h
N
- 9,0 C 18,2 C 49,9 km/h
N
Durchschnitt _ 8,4 C 69 % 1007,6 hPa #0,5 l/m 3,5 km/h N 2,9 C 7,9 C 10,3 km/h